Nova Boa Vista, Brazil
Current Conditions -  °F | °C
As of 12:00 PM on Sunday 23 Nov 2014 (Local Time) from SBCH Reporting Station
Few Clouds Few Clouds  
Wind Chill: 75°   Ceiling: Unl
Heat Index: 75°   Visibility: 6mi
Dew Point: 61°   Wind: 5mph
Humidity: 61%   Direction: 80°E
Pressure: 30"   Gusts: NA
Location:  27.99°S, 52.98°W
Report Text: SBCH 231400Z 08004KT 9999 FEW025 24/16 Q1016
Loading
Personal Weather Stations






























Interactive Weather Map New forecast layout! Learn more

10-Day Weather Forecast

Advertisements
Track Severe Weather on mobile